Time;durP1;ratioP1;P1;durP2;ratioP2;P2;SDS_P1;SDS_P2;PMS_P1;PMS_P2;Temp;Humidity;BMP_temperature;BMP_pressure;BME280_temperature;BME280_humidity;BME280_pressure;Samples;Min_cycle;Max_cycle;Signal;HPM_P1;HPM_P2
2022/04/13 00:00:13;;;;;;;3.75;1.92;;;;;;;4.19;87.10;99901.91;1771967;80;21220;-58
2022/04/13 00:03:19;;;;;;;6.45;2.30;;;;;;;4.18;87.20;99880.77;1772395;80;21201;-59
2022/04/13 00:06:26;;;;;;;2.65;1.70;;;;;;;4.22;87.42;99884.88;1771560;80;21260;-58
2022/04/13 00:09:32;;;;;;;3.65;2.40;;;;;;;4.25;87.51;99883.22;1771851;80;21186;-59
2022/04/13 00:12:42;;;;;;;3.58;2.52;;;;;;;4.29;87.64;99887.36;1771517;80;21864;-58
2022/04/13 00:15:49;;;;;;;5.15;2.52;;;;;;;4.24;87.43;99869.82;1771364;80;21173;-57
2022/04/13 00:18:56;;;;;;;4.72;2.72;;;;;;;4.21;87.58;99881.82;1771583;80;21197;-58
2022/04/13 00:22:03;;;;;;;3.58;2.52;;;;;;;4.18;87.60;99888.03;1771600;80;21198;-59
2022/04/13 00:25:09;;;;;;;3.55;2.37;;;;;;;4.15;87.74;99874.30;1771731;80;21181;-58
2022/04/13 00:28:10;;;;;;;5.55;2.08;;;;;;;4.13;87.97;99870.87;1771507;81;21185;-58
2022/04/13 00:31:17;;;;;;;4.40;2.65;;;;;;;4.10;88.20;99873.02;1771471;81;21201;-57
2022/04/13 00:34:19;;;;;;;3.05;2.10;;;;;;;4.06;88.99;99878.38;1771365;80;21249;-58
2022/04/13 00:37:12;;;;;;;4.55;2.77;;;;;;;4.02;89.28;99868.83;1771375;80;21232;-57
2022/04/13 00:39:59;;;;;;;4.17;2.45;;;;;;;4.02;89.49;99871.05;1771571;80;21197;-56
2022/04/13 00:42:52;;;;;;;4.47;2.50;;;;;;;4.04;89.62;99871.73;1771308;81;21246;-56
2022/04/13 00:45:38;;;;;;;4.17;2.40;;;;;;;4.05;89.65;99867.17;1771020;81;21233;-56
2022/04/13 00:48:45;;;;;;;3.08;2.25;;;;;;;4.06;89.83;99862.14;1763540;81;21355;-56
2022/04/13 00:51:30;;;;;;;3.33;2.17;;;;;;;4.06;89.95;99862.97;1771285;80;21197;-57
2022/04/13 00:54:30;;;;;;;3.60;2.37;;;;;;;4.10;90.04;99861.69;1769860;79;21217;-57
2022/04/13 00:57:37;;;;;;;3.60;2.30;;;;;;;4.11;90.11;99859.32;1764610;81;21308;-57
2022/04/13 01:00:48;;;;;;;4.65;2.20;;;;;;;4.08;90.08;99851.50;1771851;80;21193;-56
2022/04/13 01:03:51;;;;;;;4.35;2.60;;;;;;;4.06;90.10;99842.66;1771285;81;21244;-56
2022/04/13 01:06:58;;;;;;;6.67;2.95;;;;;;;4.06;90.33;99842.66;1763895;81;21268;-58
2022/04/13 01:10:08;;;;;;;3.58;2.33;;;;;;;4.11;90.57;99845.78;1771278;81;21944;-56
2022/04/13 01:13:20;;;;;;;5.28;2.98;;;;;;;4.15;90.56;99840.93;1771627;80;21371;-55
2022/04/13 01:16:26;;;;;;;6.03;2.92;;;;;;;4.19;90.62;99834.20;1771380;81;21209;-57
2022/04/13 01:19:34;;;;;;;7.78;2.98;;;;;;;4.21;90.57;99833.06;1771693;80;21177;-56
2022/04/13 01:22:40;;;;;;;3.75;2.50;;;;;;;4.21;90.31;99826.78;1771118;80;21197;-56
2022/04/13 01:25:55;;;;;;;4.70;2.50;;;;;;;4.16;90.24;99834.50;1771518;80;21181;-56
2022/04/13 01:29:01;;;;;;;5.25;2.58;;;;;;;4.15;90.33;99830.09;1763941;81;21197;-57
2022/04/13 01:32:10;;;;;;;3.17;2.22;;;;;;;4.15;90.42;99824.19;1771191;81;21225;-57
2022/04/13 01:35:17;;;;;;;4.28;2.30;;;;;;;4.19;90.50;99825.58;1771340;81;21197;-58
2022/04/13 01:38:22;;;;;;;4.55;2.50;;;;;;;4.23;90.46;99816.66;1771487;81;21194;-55
2022/04/13 01:41:22;;;;;;;3.33;2.02;;;;;;;4.23;90.38;99825.62;1763949;81;21157;-56
2022/04/13 01:44:15;;;;;;;4.50;2.47;;;;;;;4.22;90.24;99811.73;1771554;81;21252;-56
2022/04/13 01:47:21;;;;;;;3.87;2.50;;;;;;;4.21;90.24;99803.76;1764511;81;21193;-56
2022/04/13 01:50:27;;;;;;;4.25;2.67;;;;;;;4.22;90.28;99803.61;1771216;81;21205;-56
2022/04/13 01:53:35;;;;;;;3.80;2.52;;;;;;;4.23;90.21;99807.18;1771296;81;21745;-56
2022/04/13 01:56:40;;;;;;;2.95;1.95;;;;;;;4.21;90.12;99803.76;1767831;80;21170;-56
2022/04/13 01:59:47;;;;;;;3.65;2.52;;;;;;;4.19;90.13;99796.28;1771291;80;21221;-55
2022/04/13 02:02:55;;;;;;;4.55;2.40;;;;;;;4.21;90.28;99791.08;1771290;80;21288;-56
2022/04/13 02:06:04;;;;;;;3.27;2.10;;;;;;;4.23;90.31;99800.41;1771740;80;21312;-56
2022/04/13 02:09:10;;;;;;;3.08;1.87;;;;;;;4.26;90.28;99798.75;1771924;80;21205;-56
2022/04/13 02:12:17;;;;;;;2.98;2.20;;;;;;;4.24;90.04;99790.78;1770873;81;21217;-57
2022/04/13 02:15:24;;;;;;;3.92;2.22;;;;;;;4.23;90.06;99799.88;1771354;80;21168;-56
2022/04/13 02:18:30;;;;;;;4.33;2.65;;;;;;;4.22;89.95;99794.13;1771626;80;21217;-57
2022/04/13 02:21:38;;;;;;;4.35;2.30;;;;;;;4.20;90.01;99787.17;1771449;81;21189;-56
2022/04/13 02:24:44;;;;;;;4.47;2.70;;;;;;;4.18;90.06;99787.32;1771122;80;21188;-55
2022/04/13 02:27:51;;;;;;;6.75;3.30;;;;;;;4.16;90.03;99797.94;1770997;80;21272;-55
2022/04/13 02:30:58;;;;;;;3.55;2.10;;;;;;;4.12;90.06;99787.89;1771329;80;21209;-55
2022/04/13 02:34:05;;;;;;;8.33;4.33;;;;;;;4.09;90.14;99788.72;1771343;80;21201;-56
2022/04/13 02:37:11;;;;;;;3.58;2.12;;;;;;;4.09;90.36;99788.72;1771290;80;21236;-55
2022/04/13 02:40:19;;;;;;;5.92;3.47;;;;;;;4.11;90.41;99791.62;1762230;80;21256;-55
2022/04/13 02:43:27;;;;;;;4.08;2.10;;;;;;;4.06;90.42;99788.50;1771593;80;21240;-55
2022/04/13 02:46:33;;;;;;;4.08;2.35;;;;;;;4.08;90.63;99783.80;1771379;81;21240;-56
2022/04/13 02:49:41;;;;;;;3.70;2.30;;;;;;;4.06;90.69;99781.73;1771270;80;21197;-60
2022/04/13 02:52:48;;;;;;;3.67;2.50;;;;;;;4.08;90.79;99777.52;1771358;80;21205;-55
2022/04/13 02:55:56;;;;;;;3.25;2.10;;;;;;;4.11;90.88;99779.43;1769993;79;21243;-56
2022/04/13 02:59:03;;;;;;;2.77;2.00;;;;;;;4.10;90.82;99781.80;1771351;80;21193;-56
2022/04/13 03:02:11;;;;;;;3.60;2.30;;;;;;;4.10;91.02;99780.45;1771373;80;21189;-57
2022/04/13 03:05:17;;;;;;;4.37;2.17;;;;;;;4.12;90.96;99777.59;1764592;80;21213;-55
2022/04/13 03:08:24;;;;;;;3.52;1.90;;;;;;;4.09;90.92;99767.89;1772232;80;21233;-55
2022/04/13 03:11:31;;;;;;;3.02;1.98;;;;;;;4.09;91.00;99765.17;1772046;79;21185;-55
2022/04/13 03:14:36;;;;;;;3.05;2.15;;;;;;;4.06;90.99;99774.95;1772157;80;21205;-56
2022/04/13 03:17:43;;;;;;;2.35;2.05;;;;;;;4.05;91.16;99771.91;1772091;81;21234;-56
2022/04/13 03:20:50;;;;;;;3.65;1.98;;;;;;;4.06;91.25;99769.55;1771876;81;21252;-55
2022/04/13 03:23:57;;;;;;;2.87;1.85;;;;;;;4.07;91.40;99768.56;1772097;80;21166;-56
2022/04/13 03:27:04;;;;;;;5.75;3.12;;;;;;;4.08;91.48;99767.55;1771664;80;21319;-56
2022/04/13 03:30:13;;;;;;;3.72;2.45;;;;;;;4.08;91.54;99768.90;1771326;80;21169;-56
2022/04/13 03:33:19;;;;;;;3.75;2.25;;;;;;;4.08;91.67;99774.31;1771477;80;21228;-56
2022/04/13 03:36:26;;;;;;;5.00;2.20;;;;;;;4.10;91.77;99778.23;1772024;80;21169;-56
2022/04/13 03:39:33;;;;;;;3.60;1.98;;;;;;;4.11;91.89;99764.53;1770975;80;21252;-55
2022/04/13 03:42:46;;;;;;;4.53;2.83;;;;;;;4.11;91.95;99755.55;1764091;81;21213;-56
2022/04/13 03:45:55;;;;;;;3.65;1.87;;;;;;;4.10;92.10;99743.88;1771577;80;21331;-55
2022/04/13 03:49:08;;;;;;;2.42;1.95;;;;;;;4.12;92.20;99755.92;1770540;80;21710;-53
2022/04/13 03:52:15;;;;;;;4.33;1.65;;;;;;;4.12;92.26;99763.52;1771829;80;21229;-52
2022/04/13 03:55:22;;;;;;;2.35;1.80;;;;;;;4.10;92.35;99761.48;1771987;80;21193;-54
2022/04/13 03:58:29;;;;;;;6.30;3.45;;;;;;;4.09;92.44;99757.05;1770328;80;21212;-53
2022/04/13 04:01:34;;;;;;;5.28;3.37;;;;;;;4.07;92.56;99760.93;1771996;81;21185;-53
2022/04/13 04:04:41;;;;;;;5.65;3.55;;;;;;;4.02;92.68;99741.08;1772084;80;21185;-54
2022/04/13 04:07:50;;;;;;;4.03;2.45;;;;;;;4.01;92.89;99739.34;1771711;80;21201;-54
2022/04/13 04:10:56;;;;;;;2.72;1.90;;;;;;;4.04;93.13;99768.83;1771847;80;21245;-54
2022/04/13 04:14:04;;;;;;;5.42;2.37;;;;;;;4.05;93.28;99765.14;1772263;80;21209;-55
2022/04/13 04:20:41;;;;;;;4.10;2.20;;;;;;;4.14;93.45;99768.78;1858981;76;22223;-54
2022/04/13 04:23:50;;;;;;;4.25;1.80;;;;;;;4.10;93.50;99761.48;1789665;79;21212;-54
2022/04/13 04:26:57;;;;;;;2.35;1.75;;;;;;;4.12;93.54;99746.44;1772307;80;21150;-54
2022/04/13 04:30:10;;;;;;;2.45;1.60;;;;;;;4.10;93.47;99757.42;1772999;80;21213;-54
2022/04/13 04:33:18;;;;;;;2.10;1.40;;;;;;;4.05;93.51;99743.48;1773833;79;21272;-53
2022/04/13 04:36:36;;;;;;;2.40;1.45;;;;;;;4.05;93.66;99743.48;1772660;80;21308;-54
2022/04/13 04:39:43;;;;;;;2.60;1.55;;;;;;;4.04;93.78;99755.30;1772327;79;21177;-54
2022/04/13 04:43:29;;;;;;;1.50;1.35;;;;;;;4.03;93.92;99769.84;1773420;79;21204;-53
2022/04/13 04:46:51;;;;;;;2.00;1.40;;;;;;;4.02;94.13;99789.81;1773859;81;21152;-53
2022/04/13 04:50:23;;;;;;;2.67;1.72;;;;;;;4.02;94.31;99844.46;1773742;79;21161;-53
2022/04/13 04:56:59;;;;;;;3.77;1.37;;;;;;;4.19;95.10;99855.38;1647668;87;21713;-51
2022/04/13 05:00:11;;;;;;;3.10;1.80;;;;;;;4.24;95.17;99799.39;1648238;86;21256;-50
2022/04/13 05:03:10;;;;;;;2.12;1.45;;;;;;;4.14;96.04;99789.09;1630643;87;21742;-51
2022/04/13 05:05:59;;;;;;;2.98;1.42;;;;;;;4.03;96.69;99765.78;1658879;85;21338;-53
2022/04/13 05:09:29;;;;;;;2.33;1.55;;;;;;;3.98;96.86;99768.08;1846844;76;22308;-51
2022/04/13 05:12:38;;;;;;;2.92;1.55;;;;;;;3.92;97.09;99772.74;1800091;78;21236;-51
2022/04/13 05:15:45;;;;;;;1.92;1.40;;;;;;;3.98;97.41;99778.91;1797099;78;21260;-51
2022/04/13 05:19:21;;;;;;;2.25;1.50;;;;;;;3.96;97.44;99789.06;1768135;80;21793;-52
2022/04/13 05:29:37;;;;;;;3.22;1.80;;;;;;;4.06;97.94;99789.02;1862972;75;22744;-52
2022/04/13 05:36:28;;;;;;;2.37;1.80;;;;;;;4.06;98.21;99802.03;1748781;79;21297;-51
2022/04/13 05:39:53;;;;;;;2.17;1.65;;;;;;;4.12;98.33;99806.02;1800661;77;21200;-50
2022/04/13 05:43:00;;;;;;;2.87;1.70;;;;;;;4.15;98.38;99824.67;1794624;77;21553;-52
2022/04/13 05:46:26;;;;;;;3.25;2.15;;;;;;;4.18;98.35;99806.77;1778580;78;21271;-54
2022/04/13 05:49:57;;;;;;;3.12;2.02;;;;;;;4.29;98.43;99806.09;1841561;76;22312;-52
2022/04/13 05:53:24;;;;;;;3.10;2.10;;;;;;;4.29;98.44;99822.83;1801137;78;21180;-50
2022/04/13 05:56:32;;;;;;;4.22;2.08;;;;;;;4.33;98.37;99806.12;1777280;79;21176;-50
2022/04/13 06:00:06;;;;;;;3.33;2.35;;;;;;;4.37;98.36;99804.83;1800068;79;21394;-50
2022/04/13 06:03:14;;;;;;;10.28;4.45;;;;;;;4.43;98.37;99792.03;1801597;78;21473;-51
2022/04/13 06:06:34;;;;;;;4.28;2.77;;;;;;;4.46;98.14;99784.95;1771276;79;21312;-51
2022/04/13 06:09:49;;;;;;;3.47;2.75;;;;;;;4.48;97.94;99779.37;1768063;80;21444;-50
2022/04/13 06:12:56;;;;;;;4.92;2.87;;;;;;;4.52;97.87;99776.20;1781620;80;21205;-50
2022/04/13 06:16:03;;;;;;;6.72;2.60;;;;;;;4.58;97.83;99771.52;1745402;80;21233;-51
2022/04/13 06:19:18;;;;;;;4.33;3.02;;;;;;;4.68;97.75;99783.65;1732243;81;21216;-50
2022/04/13 06:22:24;;;;;;;3.95;2.72;;;;;;;4.77;97.63;99785.95;1711579;83;21204;-51
2022/04/13 06:25:32;;;;;;;5.12;3.17;;;;;;;4.85;97.55;99799.59;1728176;82;21184;-52
2022/04/13 06:28:40;;;;;;;5.90;3.00;;;;;;;4.90;97.24;99795.93;1700766;82;21227;-52
2022/04/13 06:31:48;;;;;;;4.80;3.00;;;;;;;4.99;97.10;99793.14;1731124;82;21252;-52
2022/04/13 06:35:00;;;;;;;5.03;2.87;;;;;;;5.09;96.85;99797.13;1702542;84;21227;-51
2022/04/13 06:38:08;;;;;;;5.67;2.95;;;;;;;5.18;96.65;99792.12;1701993;82;21236;-51
2022/04/13 06:41:18;;;;;;;5.47;2.90;;;;;;;5.27;96.38;99803.37;1773916;81;21733;-52
2022/04/13 06:44:27;;;;;;;5.42;3.30;;;;;;;5.33;96.08;99810.39;1779402;79;21188;-53
2022/04/13 06:47:34;;;;;;;6.35;3.47;;;;;;;5.36;95.67;99809.25;1788530;79;21236;-51
2022/04/13 06:50:44;;;;;;;7.55;3.62;;;;;;;5.47;95.79;99812.55;1766416;79;21177;-53
2022/04/13 06:53:51;;;;;;;8.60;3.37;;;;;;;5.58;95.42;99810.10;1749637;81;21437;-53
2022/04/13 06:57:03;;;;;;;7.47;3.47;;;;;;;5.68;95.15;99806.77;1778371;79;21370;-53
2022/04/13 07:00:09;;;;;;;10.10;3.58;;;;;;;5.73;94.64;99803.07;1782408;79;21179;-54
2022/04/13 07:03:15;;;;;;;8.35;3.98;;;;;;;5.76;94.11;99806.81;1786162;79;21350;-53
2022/04/13 07:06:22;;;;;;;8.03;4.40;;;;;;;5.79;94.09;99803.28;1800789;79;21157;-54
2022/04/13 07:09:29;;;;;;;7.53;3.67;;;;;;;5.86;93.91;99798.97;1805467;78;21233;-55
2022/04/13 07:12:45;;;;;;;10.25;3.75;;;;;;;5.90;93.48;99808.48;1761518;80;21368;-55
2022/04/13 07:15:52;;;;;;;7.20;3.90;;;;;;;5.95;93.54;99810.71;1767383;80;21197;-56
2022/04/13 07:19:02;;;;;;;6.78;4.00;;;;;;;6.05;93.56;99801.95;1799733;79;21346;-56
2022/04/13 07:22:09;;;;;;;10.10;4.47;;;;;;;6.20;93.58;99804.92;1798616;79;21323;-55
2022/04/13 07:25:17;;;;;;;8.15;4.58;;;;;;;6.31;93.31;99783.72;1798322;79;21199;-55
2022/04/13 07:28:22;;;;;;;13.28;5.70;;;;;;;6.39;93.16;99780.21;1756947;80;22183;-55
2022/04/13 07:31:31;;;;;;;9.15;4.92;;;;;;;6.47;92.68;99768.84;1756003;80;21324;-55
2022/04/13 07:34:41;;;;;;;10.90;4.62;;;;;;;6.58;92.23;99790.81;1770716;81;21209;-56
2022/04/13 07:37:51;;;;;;;8.25;4.37;;;;;;;6.56;91.72;99803.22;1769416;79;21780;-55
2022/04/13 07:41:01;;;;;;;11.15;6.25;;;;;;;6.54;91.77;99788.92;1762917;81;21240;-54
2022/04/13 07:44:06;;;;;;;10.45;5.70;;;;;;;6.63;92.05;99796.09;1766182;79;21319;-55
2022/04/13 07:47:20;;;;;;;10.40;5.90;;;;;;;6.75;91.87;99789.84;1768611;80;21173;-57
2022/04/13 07:50:22;;;;;;;10.08;5.95;;;;;;;6.89;91.85;99779.17;1762544;80;21185;-56
2022/04/13 07:53:30;;;;;;;9.83;5.70;;;;;;;7.03;91.65;99788.03;1746062;80;21236;-55
2022/04/13 07:56:37;;;;;;;11.65;5.92;;;;;;;7.08;91.19;99815.59;1761540;79;21185;-56
2022/04/13 07:59:43;;;;;;;14.78;7.33;;;;;;;7.10;90.77;99788.21;1799226;78;21208;-55
2022/04/13 08:03:05;;;;;;;12.80;7.28;;;;;;;7.10;90.75;99790.41;1801929;78;21189;-55
2022/04/13 08:06:19;;;;;;;13.00;6.95;;;;;;;7.20;91.01;99782.08;1794815;79;21706;-55
2022/04/13 08:09:28;;;;;;;12.28;6.67;;;;;;;7.33;91.16;99787.37;1781178;79;21188;-55
2022/04/13 08:12:39;;;;;;;13.53;7.03;;;;;;;7.41;90.34;99780.58;1801209;79;21189;-55
2022/04/13 08:15:49;;;;;;;12.93;7.08;;;;;;;7.54;90.61;99767.80;1795885;79;21185;-55
2022/04/13 08:18:59;;;;;;;12.93;7.15;;;;;;;7.71;90.32;99779.55;1734796;81;21793;-55
2022/04/13 08:22:06;;;;;;;14.20;7.10;;;;;;;7.83;89.58;99780.87;1749002;81;21182;-54
2022/04/13 08:25:13;;;;;;;13.83;7.60;;;;;;;7.80;89.16;99783.95;1754756;81;21340;-56
2022/04/13 08:28:18;;;;;;;17.30;8.33;;;;;;;7.87;89.42;99778.98;1744717;79;21218;-55
2022/04/13 08:31:25;;;;;;;16.05;8.25;;;;;;;7.98;89.25;99781.84;1771870;81;22052;-56
2022/04/13 08:34:37;;;;;;;15.85;8.40;;;;;;;8.07;89.17;99791.72;1772189;79;21278;-53
2022/04/13 08:37:43;;;;;;;20.88;9.88;;;;;;;8.13;88.72;99788.30;1791337;79;22045;-55
2022/04/13 08:41:05;;;;;;;17.35;8.40;;;;;;;8.18;88.26;99789.98;1772396;79;21597;-55
2022/04/13 08:44:17;;;;;;;15.60;9.13;;;;;;;8.20;88.47;99783.33;1735722;81;21205;-54
2022/04/13 08:47:30;;;;;;;15.03;8.63;;;;;;;8.34;88.68;99785.34;1772484;81;21620;-56
2022/04/13 08:50:38;;;;;;;17.95;9.73;;;;;;;8.46;88.55;99781.73;1770696;80;21256;-55
2022/04/13 08:53:43;;;;;;;15.18;9.18;;;;;;;8.59;88.06;99792.93;1734381;81;21265;-55
2022/04/13 08:56:55;;;;;;;17.35;10.48;;;;;;;8.60;87.50;99781.84;1771710;81;21243;-56
2022/04/13 09:00:19;;;;;;;18.00;10.08;;;;;;;8.66;87.43;99799.36;1734427;81;21821;-55
2022/04/13 09:03:43;;;;;;;19.15;10.65;;;;;;;8.70;87.17;99793.39;1772851;79;21228;-55
2022/04/13 09:06:49;;;;;;;18.20;11.00;;;;;;;8.76;87.37;99783.12;1736164;81;21209;-55
2022/04/13 09:10:00;;;;;;;18.80;10.05;;;;;;;8.86;87.27;99780.17;1799349;79;21753;-55
2022/04/13 09:13:30;;;;;;;18.73;11.03;;;;;;;8.89;86.96;99782.53;1773764;79;21641;-55
2022/04/13 09:16:39;;;;;;;16.05;10.40;;;;;;;9.00;87.06;99779.39;1810791;79;21204;-55
2022/04/13 09:19:47;;;;;;;17.70;9.98;;;;;;;9.13;86.94;99774.70;1779098;79;21196;-55
2022/04/13 09:22:51;;;;;;;18.32;10.53;;;;;;;9.26;86.41;99792.16;1810806;78;21756;-55
2022/04/13 09:25:59;;;;;;;20.30;12.85;;;;;;;9.28;86.11;99779.19;1778930;79;21345;-55
2022/04/13 09:29:07;;;;;;;17.15;10.58;;;;;;;9.45;86.77;99786.75;1810533;78;21192;-54
2022/04/13 09:32:13;;;;;;;19.40;12.63;;;;;;;9.74;86.53;99790.91;1785008;79;21756;-55
2022/04/13 09:35:20;;;;;;;19.30;11.25;;;;;;;9.96;85.91;99788.64;1760795;80;21165;-55
2022/04/13 09:38:28;;;;;;;17.55;11.53;;;;;;;10.07;85.00;99800.48;1779822;80;21213;-54
2022/04/13 09:41:44;;;;;;;19.65;11.10;;;;;;;10.06;84.07;99785.99;1777063;79;21648;-53
2022/04/13 09:44:51;;;;;;;19.98;11.85;;;;;;;10.08;83.92;99800.37;1810437;79;21208;-55
2022/04/13 09:48:01;;;;;;;20.02;12.63;;;;;;;10.13;83.74;99785.59;1786826;79;21299;-54
2022/04/13 09:51:08;;;;;;;21.27;12.47;;;;;;;10.32;83.86;99782.29;1749035;81;21256;-54
2022/04/13 09:54:18;;;;;;;20.60;11.73;;;;;;;10.53;83.73;99778.28;1775174;81;21780;-54
2022/04/13 09:57:31;;;;;;;21.10;14.38;;;;;;;10.66;82.90;99776.73;1774939;80;21200;-54
2022/04/13 10:00:37;;;;;;;20.07;12.80;;;;;;;10.82;82.79;99790.22;1774330;81;21625;-52
2022/04/13 10:03:44;;;;;;;18.75;12.78;;;;;;;10.96;81.57;99792.06;1764190;81;21316;-53
2022/04/13 10:06:52;;;;;;;22.90;14.05;;;;;;;11.08;81.55;99809.72;1737696;82;21192;-53
2022/04/13 10:10:00;;;;;;;20.70;12.85;;;;;;;11.17;80.79;99793.48;1709995;83;21215;-53
2022/04/13 10:13:11;;;;;;;21.05;14.03;;;;;;;11.18;80.74;99799.31;1706967;81;21284;-53
2022/04/13 10:16:24;;;;;;;21.07;14.25;;;;;;;11.18;80.67;99797.39;1771238;81;21236;-54
2022/04/13 10:19:44;;;;;;;20.17;13.78;;;;;;;11.50;80.89;99781.83;1838214;76;22281;-56
2022/04/13 10:23:08;;;;;;;22.85;14.00;;;;;;;11.53;80.59;99786.05;1793072;79;21540;-54
2022/04/13 10:26:17;;;;;;;23.85;14.95;;;;;;;11.63;80.32;99793.46;1784531;79;21158;-55
2022/04/13 10:29:26;;;;;;;20.80;14.10;;;;;;;11.74;80.36;99783.34;1784207;79;21192;-56
2022/04/13 10:32:32;;;;;;;29.45;15.50;;;;;;;11.85;79.54;99796.50;1790097;79;21838;-56
2022/04/13 10:35:42;;;;;;;23.22;15.18;;;;;;;11.88;79.60;99787.37;1796848;79;21165;-56
2022/04/13 10:38:50;;;;;;;24.67;14.73;;;;;;;12.07;79.42;99791.84;1795777;78;21221;-56
2022/04/13 10:41:57;;;;;;;23.20;15.60;;;;;;;12.16;79.02;99801.61;1792529;79;21310;-56
2022/04/13 10:45:12;;;;;;;20.25;13.40;;;;;;;12.10;78.41;99796.93;1766235;80;21699;-55
2022/04/13 10:48:20;;;;;;;18.90;13.48;;;;;;;12.06;78.68;99808.81;1721983;83;21209;-56
2022/04/13 10:51:33;;;;;;;21.45;14.78;;;;;;;12.14;78.88;99796.84;1730240;81;21200;-57
2022/04/13 10:54:40;;;;;;;22.13;15.13;;;;;;;12.22;79.17;99787.08;1798733;79;21570;-57
2022/04/13 10:57:59;;;;;;;21.20;14.43;;;;;;;12.30;79.39;99813.00;1780437;78;21200;-55
2022/04/13 11:01:13;;;;;;;19.00;13.58;;;;;;;12.28;78.58;99798.11;1775344;79;21227;-55
2022/04/13 11:04:22;;;;;;;24.92;16.60;;;;;;;12.24;79.28;99802.83;1810944;78;21182;-55
2022/04/13 11:07:31;;;;;;;24.63;15.48;;;;;;;12.37;79.54;99814.73;1777507;79;21208;-55
2022/04/13 11:10:40;;;;;;;20.35;15.80;;;;;;;12.58;79.12;99792.70;1789910;79;21196;-55
2022/04/13 11:13:46;;;;;;;19.75;15.15;;;;;;;12.71;78.01;99805.64;1800784;79;21189;-55
2022/04/13 11:16:53;;;;;;;25.30;17.23;;;;;;;12.83;78.07;99796.62;1765381;80;21608;-56
2022/04/13 11:19:58;;;;;;;25.20;17.48;;;;;;;13.04;77.93;99805.30;1762090;80;21216;-56
2022/04/13 11:23:22;;;;;;;21.70;15.58;;;;;;;13.27;77.62;99810.77;1773721;80;21204;-56
2022/04/13 11:26:49;;;;;;;23.75;16.07;;;;;;;13.48;76.00;99800.98;1772441;80;21742;-56
2022/04/13 11:30:11;;;;;;;26.95;17.20;;;;;;;13.55;75.47;99805.13;1763292;80;21216;-56
2022/04/13 11:33:18;;;;;;;22.62;16.05;;;;;;;13.63;74.52;99804.08;1756517;80;21201;-55
2022/04/13 11:36:27;;;;;;;24.43;16.55;;;;;;;13.62;74.35;99816.97;1767627;80;21182;-56
2022/04/13 11:39:56;;;;;;;27.55;17.90;;;;;;;13.51;73.88;99830.81;1759669;79;22048;-57
2022/04/13 11:43:04;;;;;;;24.52;17.60;;;;;;;13.42;74.23;99812.83;1770358;80;21188;-56
2022/04/13 11:46:11;;;;;;;23.25;17.27;;;;;;;13.44;74.79;99827.22;1702239;80;21232;-56
2022/04/13 11:49:17;;;;;;;23.20;18.07;;;;;;;13.66;74.85;99818.27;1767433;80;21233;-58
2022/04/13 11:52:58;;;;;;;23.07;16.15;;;;;;;13.93;74.74;99820.50;1760926;81;21175;-58
2022/04/13 11:56:07;;;;;;;24.55;17.10;;;;;;;14.07;73.19;99813.94;1753140;81;21188;-57
2022/04/13 11:59:14;;;;;;;25.60;17.48;;;;;;;14.07;72.53;99821.68;1768971;80;21237;-57
2022/04/13 12:02:22;;;;;;;24.52;16.80;;;;;;;13.98;72.69;99811.09;1720575;82;21200;-58
2022/04/13 12:05:29;;;;;;;22.17;15.85;;;;;;;13.87;72.90;99848.87;1739854;81;21249;-56
2022/04/13 12:08:50;;;;;;;29.63;19.40;;;;;;;13.71;72.88;99824.50;1719429;80;21612;-56
2022/04/13 12:11:58;;;;;;;22.62;18.35;;;;;;;13.47;73.93;99824.05;1764533;80;21350;-56
2022/04/13 12:15:06;;;;;;;24.92;17.70;;;;;;;13.36;74.58;99834.28;1766949;80;21265;-57
2022/04/13 12:18:18;;;;;;;23.25;17.95;;;;;;;13.31;75.18;99839.55;1728394;82;21216;-56
2022/04/13 12:21:26;;;;;;;25.68;18.90;;;;;;;13.37;75.50;99822.73;1773051;80;21239;-56
2022/04/13 12:24:34;;;;;;;21.97;17.45;;;;;;;13.52;75.63;99817.37;1779385;79;21252;-57
2022/04/13 12:27:41;;;;;;;27.05;18.30;;;;;;;13.75;74.94;99832.67;1764984;79;21206;-58
2022/04/13 12:30:48;;;;;;;28.47;19.27;;;;;;;14.03;74.14;99836.08;1774773;79;21322;-58
2022/04/13 12:33:55;;;;;;;27.42;18.95;;;;;;;13.99;73.85;99843.91;1765468;79;21189;-58
2022/04/13 12:37:06;;;;;;;24.77;18.02;;;;;;;13.88;73.62;99841.78;1797197;79;21240;-57
2022/04/13 12:40:32;;;;;;;29.32;19.62;;;;;;;13.72;74.16;99835.81;1790521;79;21261;-56
2022/04/13 12:43:39;;;;;;;22.37;16.70;;;;;;;13.68;74.74;99849.69;1776140;80;21714;-57
2022/04/13 12:46:50;;;;;;;27.32;20.75;;;;;;;13.52;74.66;99839.38;1749764;81;21214;-56
2022/04/13 12:50:09;;;;;;;29.12;19.12;;;;;;;13.48;75.47;99833.98;1777382;79;21170;-57
2022/04/13 12:53:15;;;;;;;29.25;20.43;;;;;;;13.50;75.57;99829.13;1726224;81;21562;-57
2022/04/13 12:56:24;;;;;;;28.30;19.87;;;;;;;13.47;75.60;99818.55;1785731;79;21791;-57
2022/04/13 12:59:34;;;;;;;27.10;19.40;;;;;;;13.40;75.70;99830.05;1777618;79;21172;-57
2022/04/13 13:02:40;;;;;;;28.23;20.65;;;;;;;13.48;76.08;99843.61;1801052;79;21698;-57
2022/04/13 13:05:46;;;;;;;30.85;20.50;;;;;;;13.52;75.52;99833.05;1797088;79;21718;-53
2022/04/13 13:09:11;;;;;;;28.90;20.25;;;;;;;13.57;75.62;99849.78;1784856;78;21293;-55
2022/04/13 13:12:22;;;;;;;26.40;19.25;;;;;;;13.51;75.50;99815.69;1793306;79;21197;-55
2022/04/13 13:15:45;;;;;;;23.55;17.05;;;;;;;13.43;75.83;99879.13;1795929;79;21555;-55
2022/04/13 13:18:51;;;;;;;32.90;21.93;;;;;;;13.36;76.07;99843.05;1781775;78;21197;-55
2022/04/13 13:22:38;;;;;;;31.87;21.23;;;;;;;13.23;76.43;99840.25;1770121;79;21205;-55
2022/04/13 13:25:48;;;;;;;31.85;21.45;;;;;;;13.27;77.13;99827.25;1755317;79;21180;-54
2022/04/13 13:28:54;;;;;;;30.48;20.85;;;;;;;13.45;77.21;99854.17;1764143;79;21189;-54
2022/04/13 13:32:00;;;;;;;33.02;21.70;;;;;;;13.48;76.81;99861.48;1756681;80;21566;-55
2022/04/13 13:35:09;;;;;;;34.80;23.75;;;;;;;13.53;77.06;99837.48;1794595;79;21173;-55
2022/04/13 13:38:20;;;;;;;32.63;22.62;;;;;;;13.57;76.87;99844.28;1779778;78;21201;-54
2022/04/13 13:41:28;;;;;;;36.80;21.57;;;;;;;13.49;76.52;99860.42;1764729;81;21213;-55
2022/04/13 13:44:34;;;;;;;34.45;23.75;;;;;;;13.42;76.81;99856.81;1749152;81;21333;-54
2022/04/13 13:47:42;;;;;;;34.30;24.10;;;;;;;13.37;77.14;99850.23;1764885;80;21225;-54
2022/04/13 13:50:53;;;;;;;34.23;22.05;;;;;;;13.39;77.59;99857.75;1766457;80;21817;-53
2022/04/13 13:54:04;;;;;;;34.95;22.50;;;;;;;13.52;77.92;99864.67;1769229;79;21231;-54
2022/04/13 13:57:11;;;;;;;34.20;23.47;;;;;;;13.54;77.40;99866.70;1737432;81;21193;-56
2022/04/13 14:00:18;;;;;;;30.90;22.50;;;;;;;13.59;77.53;99874.32;1738216;80;21213;-55
2022/04/13 14:03:25;;;;;;;35.70;24.12;;;;;;;13.58;76.88;99885.84;1761292;80;21186;-55
2022/04/13 14:06:32;;;;;;;37.15;24.07;;;;;;;13.45;77.22;99886.64;1744351;80;21206;-54
2022/04/13 14:09:40;;;;;;;36.65;23.95;;;;;;;13.31;77.54;99929.41;1730391;81;21227;-56
2022/04/13 14:12:45;;;;;;;38.15;25.32;;;;;;;13.26;77.88;99890.17;1737058;81;21594;-55
2022/04/13 14:15:52;;;;;;;36.28;23.98;;;;;;;13.26;78.08;99902.53;1757561;81;21185;-55
2022/04/13 14:18:58;;;;;;;31.57;22.82;;;;;;;13.25;78.32;99904.12;1756979;80;21185;-56
2022/04/13 14:22:05;;;;;;;36.85;25.43;;;;;;;13.09;78.44;99914.08;1766229;79;21173;-55
2022/04/13 14:25:13;;;;;;;39.88;24.77;;;;;;;12.89;79.14;99913.09;1716884;82;21209;-55
2022/04/13 14:28:27;;;;;;;36.15;26.10;;;;;;;12.76;79.71;99923.47;1724026;82;21622;-55
2022/04/13 14:31:36;;;;;;;34.48;24.47;;;;;;;12.59;80.07;99908.33;1722565;83;21245;-56
2022/04/13 14:34:47;;;;;;;42.15;26.42;;;;;;;12.45;80.68;99923.52;1730243;83;21244;-56
2022/04/13 14:38:20;;;;;;;40.05;26.75;;;;;;;12.34;81.45;99924.06;1730726;83;21220;-57
2022/04/13 14:41:27;;;;;;;41.37;25.97;;;;;;;12.29;81.87;99918.34;1781366;80;21315;-56
2022/04/13 14:44:34;;;;;;;39.35;26.00;;;;;;;12.17;82.17;99939.98;1783922;80;21391;-55
2022/04/13 14:47:40;;;;;;;40.88;25.45;;;;;;;12.04;82.57;99937.09;1783955;80;21205;-56
2022/04/13 14:50:47;;;;;;;48.13;27.17;;;;;;;11.97;83.06;99941.14;1783933;80;21236;-55
2022/04/13 14:53:55;;;;;;;37.20;24.90;;;;;;;11.97;83.44;99938.95;1783647;80;21196;-55
2022/04/13 14:57:00;;;;;;;35.20;24.07;;;;;;;11.94;83.56;99942.05;1783655;80;21169;-56
2022/04/13 15:00:10;;;;;;;35.78;23.50;;;;;;;11.89;83.62;99954.98;1784034;80;21197;-57
2022/04/13 15:03:15;;;;;;;41.60;26.73;;;;;;;11.78;83.85;99945.07;1783618;80;21576;-56
2022/04/13 15:06:24;;;;;;;46.28;25.68;;;;;;;11.68;84.16;99945.38;1745910;81;21196;-55